sensor_id;sensor_type;location;lat;lon;timestamp;temperature;humidity
14705;DHT22;7442;50.840;3.396;2023-06-19T00:01:54;25.40;61.80
14705;DHT22;7442;50.840;3.396;2023-06-19T00:04:22;25.40;61.80
14705;DHT22;7442;50.840;3.396;2023-06-19T00:06:50;25.40;61.70
14705;DHT22;7442;50.840;3.396;2023-06-19T00:09:18;25.40;61.80
14705;DHT22;7442;50.840;3.396;2023-06-19T00:11:46;25.40;61.70
14705;DHT22;7442;50.840;3.396;2023-06-19T00:14:13;25.40;61.60
14705;DHT22;7442;50.840;3.396;2023-06-19T00:16:41;25.30;61.60
14705;DHT22;7442;50.840;3.396;2023-06-19T00:19:09;25.30;61.50
14705;DHT22;7442;50.840;3.396;2023-06-19T00:21:38;25.40;61.60
14705;DHT22;7442;50.840;3.396;2023-06-19T00:24:06;25.30;61.40
14705;DHT22;7442;50.840;3.396;2023-06-19T00:26:34;25.30;61.50
14705;DHT22;7442;50.840;3.396;2023-06-19T00:29:02;25.40;61.40
14705;DHT22;7442;50.840;3.396;2023-06-19T00:31:30;25.40;61.40
14705;DHT22;7442;50.840;3.396;2023-06-19T00:33:58;25.30;61.30
14705;DHT22;7442;50.840;3.396;2023-06-19T00:36:25;25.30;61.20
14705;DHT22;7442;50.840;3.396;2023-06-19T00:38:53;25.30;61.30
14705;DHT22;7442;50.840;3.396;2023-06-19T00:41:21;25.30;61.20
14705;DHT22;7442;50.840;3.396;2023-06-19T00:43:49;25.40;61.40
14705;DHT22;7442;50.840;3.396;2023-06-19T00:46:19;25.30;61.30
14705;DHT22;7442;50.840;3.396;2023-06-19T00:48:46;25.40;61.40
14705;DHT22;7442;50.840;3.396;2023-06-19T00:51:16;25.30;61.20
14705;DHT22;7442;50.840;3.396;2023-06-19T00:53:44;25.30;61.30
14705;DHT22;7442;50.840;3.396;2023-06-19T00:56:12;25.30;61.20
14705;DHT22;7442;50.840;3.396;2023-06-19T00:58:41;25.30;61.20
14705;DHT22;7442;50.840;3.396;2023-06-19T01:01:09;25.30;61.20
14705;DHT22;7442;50.840;3.396;2023-06-19T01:03:37;25.30;61.30
14705;DHT22;7442;50.840;3.396;2023-06-19T01:06:13;25.30;62.00
14705;DHT22;7442;50.840;3.396;2023-06-19T01:09:02;25.30;61.30
14705;DHT22;7442;50.840;3.396;2023-06-19T01:11:33;25.30;61.30
14705;DHT22;7442;50.840;3.396;2023-06-19T01:14:07;25.30;61.30
14705;DHT22;7442;50.840;3.396;2023-06-19T01:16:35;25.20;61.20
14705;DHT22;7442;50.840;3.396;2023-06-19T01:19:04;25.30;61.20
14705;DHT22;7442;50.840;3.396;2023-06-19T01:21:33;25.30;61.20
14705;DHT22;7442;50.840;3.396;2023-06-19T01:24:01;25.20;61.10
14705;DHT22;7442;50.840;3.396;2023-06-19T01:26:29;25.30;61.20
14705;DHT22;7442;50.840;3.396;2023-06-19T01:28:56;25.20;61.10
14705;DHT22;7442;50.840;3.396;2023-06-19T01:31:36;25.30;61.20
14705;DHT22;7442;50.840;3.396;2023-06-19T01:34:06;25.20;61.10
14705;DHT22;7442;50.840;3.396;2023-06-19T01:36:36;25.20;61.10
14705;DHT22;7442;50.840;3.396;2023-06-19T01:39:04;25.20;61.00
14705;DHT22;7442;50.840;3.396;2023-06-19T01:41:33;25.20;61.00
14705;DHT22;7442;50.840;3.396;2023-06-19T01:44:01;25.30;61.00
14705;DHT22;7442;50.840;3.396;2023-06-19T01:46:29;25.20;61.00
14705;DHT22;7442;50.840;3.396;2023-06-19T01:48:57;25.20;60.90
14705;DHT22;7442;50.840;3.396;2023-06-19T01:51:25;25.20;60.90
14705;DHT22;7442;50.840;3.396;2023-06-19T01:53:53;25.20;60.90
14705;DHT22;7442;50.840;3.396;2023-06-19T01:56:21;25.20;60.90
14705;DHT22;7442;50.840;3.396;2023-06-19T01:58:50;25.20;60.90
14705;DHT22;7442;50.840;3.396;2023-06-19T02:01:19;25.20;60.90
14705;DHT22;7442;50.840;3.396;2023-06-19T02:03:46;25.20;60.90
14705;DHT22;7442;50.840;3.396;2023-06-19T02:06:14;25.20;60.80
14705;DHT22;7442;50.840;3.396;2023-06-19T02:08:42;25.20;60.80
14705;DHT22;7442;50.840;3.396;2023-06-19T02:11:09;25.20;60.80
14705;DHT22;7442;50.840;3.396;2023-06-19T02:13:38;25.20;60.80
14705;DHT22;7442;50.840;3.396;2023-06-19T02:16:05;25.20;60.90
14705;DHT22;7442;50.840;3.396;2023-06-19T02:18:33;25.20;60.70
14705;DHT22;7442;50.840;3.396;2023-06-19T02:21:01;25.20;60.70
14705;DHT22;7442;50.840;3.396;2023-06-19T02:23:29;25.10;60.60
14705;DHT22;7442;50.840;3.396;2023-06-19T02:25:57;25.10;60.60
14705;DHT22;7442;50.840;3.396;2023-06-19T02:28:25;25.10;60.50
14705;DHT22;7442;50.840;3.396;2023-06-19T02:30:54;25.10;61.10
14705;DHT22;7442;50.840;3.396;2023-06-19T02:33:22;25.10;60.50
14705;DHT22;7442;50.840;3.396;2023-06-19T02:35:49;25.10;60.40
14705;DHT22;7442;50.840;3.396;2023-06-19T02:38:17;25.10;60.30
14705;DHT22;7442;50.840;3.396;2023-06-19T02:40:46;25.10;60.30
14705;DHT22;7442;50.840;3.396;2023-06-19T02:43:14;25.10;60.30
14705;DHT22;7442;50.840;3.396;2023-06-19T02:45:42;25.00;60.20
14705;DHT22;7442;50.840;3.396;2023-06-19T02:48:10;25.10;60.20
14705;DHT22;7442;50.840;3.396;2023-06-19T02:50:38;25.00;60.30
14705;DHT22;7442;50.840;3.396;2023-06-19T02:53:05;25.00;60.20
14705;DHT22;7442;50.840;3.396;2023-06-19T02:55:33;25.00;60.20
14705;DHT22;7442;50.840;3.396;2023-06-19T02:58:01;25.00;60.20
14705;DHT22;7442;50.840;3.396;2023-06-19T03:00:29;25.00;60.20
14705;DHT22;7442;50.840;3.396;2023-06-19T03:02:57;25.00;60.20
14705;DHT22;7442;50.840;3.396;2023-06-19T03:05:25;25.00;60.10
14705;DHT22;7442;50.840;3.396;2023-06-19T03:07:53;25.00;60.10
14705;DHT22;7442;50.840;3.396;2023-06-19T03:10:21;25.00;60.00
14705;DHT22;7442;50.840;3.396;2023-06-19T03:12:49;25.00;60.10
14705;DHT22;7442;50.840;3.396;2023-06-19T03:15:16;24.90;60.70
14705;DHT22;7442;50.840;3.396;2023-06-19T03:17:44;25.00;60.00
14705;DHT22;7442;50.840;3.396;2023-06-19T03:20:12;25.00;60.00
14705;DHT22;7442;50.840;3.396;2023-06-19T03:22:41;25.00;60.00
14705;DHT22;7442;50.840;3.396;2023-06-19T03:25:09;25.00;60.00
14705;DHT22;7442;50.840;3.396;2023-06-19T03:27:37;24.90;59.90
14705;DHT22;7442;50.840;3.396;2023-06-19T03:30:05;25.00;59.90
14705;DHT22;7442;50.840;3.396;2023-06-19T03:32:34;24.90;59.80
14705;DHT22;7442;50.840;3.396;2023-06-19T03:35:02;24.90;59.80
14705;DHT22;7442;50.840;3.396;2023-06-19T03:37:31;24.90;59.70
14705;DHT22;7442;50.840;3.396;2023-06-19T03:40:02;24.90;59.70
14705;DHT22;7442;50.840;3.396;2023-06-19T03:42:33;24.90;59.70
14705;DHT22;7442;50.840;3.396;2023-06-19T03:45:01;24.90;59.70
14705;DHT22;7442;50.840;3.396;2023-06-19T03:47:29;24.90;59.70
14705;DHT22;7442;50.840;3.396;2023-06-19T03:49:57;24.90;59.70
14705;DHT22;7442;50.840;3.396;2023-06-19T03:52:25;24.90;59.60
14705;DHT22;7442;50.840;3.396;2023-06-19T03:54:53;24.90;59.60
14705;DHT22;7442;50.840;3.396;2023-06-19T03:57:21;24.80;59.60
14705;DHT22;7442;50.840;3.396;2023-06-19T03:59:48;24.90;59.60
14705;DHT22;7442;50.840;3.396;2023-06-19T04:02:16;24.90;59.60
14705;DHT22;7442;50.840;3.396;2023-06-19T04:04:44;24.80;59.60
14705;DHT22;7442;50.840;3.396;2023-06-19T04:07:12;24.90;59.60
14705;DHT22;7442;50.840;3.396;2023-06-19T04:09:40;24.80;59.50
14705;DHT22;7442;50.840;3.396;2023-06-19T04:12:08;24.80;59.50
14705;DHT22;7442;50.840;3.396;2023-06-19T04:14:36;24.80;59.70
14705;DHT22;7442;50.840;3.396;2023-06-19T04:17:04;24.80;58.90
14705;DHT22;7442;50.840;3.396;2023-06-19T04:19:32;24.80;59.40
14705;DHT22;7442;50.840;3.396;2023-06-19T04:22:00;24.80;59.40
14705;DHT22;7442;50.840;3.396;2023-06-19T04:24:28;24.80;59.40
14705;DHT22;7442;50.840;3.396;2023-06-19T04:26:56;24.80;59.40
14705;DHT22;7442;50.840;3.396;2023-06-19T04:29:24;24.80;59.40
14705;DHT22;7442;50.840;3.396;2023-06-19T04:31:51;24.80;59.90
14705;DHT22;7442;50.840;3.396;2023-06-19T04:34:19;24.80;59.40
14705;DHT22;7442;50.840;3.396;2023-06-19T04:36:47;24.80;59.30
14705;DHT22;7442;50.840;3.396;2023-06-19T04:39:15;24.80;59.30
14705;DHT22;7442;50.840;3.396;2023-06-19T04:41:44;24.80;59.20
14705;DHT22;7442;50.840;3.396;2023-06-19T04:44:12;24.80;59.20
14705;DHT22;7442;50.840;3.396;2023-06-19T04:46:40;24.80;59.20
14705;DHT22;7442;50.840;3.396;2023-06-19T04:49:08;24.80;59.10
14705;DHT22;7442;50.840;3.396;2023-06-19T04:51:36;24.70;59.00
14705;DHT22;7442;50.840;3.396;2023-06-19T04:54:04;24.80;59.10
14705;DHT22;7442;50.840;3.396;2023-06-19T04:56:35;24.80;59.10
14705;DHT22;7442;50.840;3.396;2023-06-19T04:59:04;24.80;59.00
14705;DHT22;7442;50.840;3.396;2023-06-19T05:01:32;24.80;59.00
14705;DHT22;7442;50.840;3.396;2023-06-19T05:03:59;24.80;59.00
14705;DHT22;7442;50.840;3.396;2023-06-19T05:06:27;24.80;58.90
14705;DHT22;7442;50.840;3.396;2023-06-19T05:08:55;24.80;58.90
14705;DHT22;7442;50.840;3.396;2023-06-19T05:11:22;24.80;58.90
14705;DHT22;7442;50.840;3.396;2023-06-19T05:13:50;24.70;58.80
14705;DHT22;7442;50.840;3.396;2023-06-19T05:16:18;24.80;58.80
14705;DHT22;7442;50.840;3.396;2023-06-19T05:18:46;24.70;58.70
14705;DHT22;7442;50.840;3.396;2023-06-19T05:21:14;24.80;58.70
14705;DHT22;7442;50.840;3.396;2023-06-19T05:23:42;24.80;58.70
14705;DHT22;7442;50.840;3.396;2023-06-19T05:26:10;24.80;58.70
14705;DHT22;7442;50.840;3.396;2023-06-19T05:28:38;24.80;58.80
14705;DHT22;7442;50.840;3.396;2023-06-19T05:31:06;24.90;58.80
14705;DHT22;7442;50.840;3.396;2023-06-19T05:33:33;24.90;58.80
14705;DHT22;7442;50.840;3.396;2023-06-19T05:36:01;24.80;58.80
14705;DHT22;7442;50.840;3.396;2023-06-19T05:38:29;24.80;58.90
14705;DHT22;7442;50.840;3.396;2023-06-19T05:41:02;24.90;58.90
14705;DHT22;7442;50.840;3.396;2023-06-19T05:43:30;24.90;59.30
14705;DHT22;7442;50.840;3.396;2023-06-19T05:46:17;24.90;59.40
14705;DHT22;7442;50.840;3.396;2023-06-19T05:49:04;24.90;59.30
14705;DHT22;7442;50.840;3.396;2023-06-19T05:51:50;24.90;59.30
14705;DHT22;7442;50.840;3.396;2023-06-19T05:54:36;24.90;59.30
14705;DHT22;7442;50.840;3.396;2023-06-19T05:57:23;24.80;59.20
14705;DHT22;7442;50.840;3.396;2023-06-19T06:00:10;24.90;59.20
14705;DHT22;7442;50.840;3.396;2023-06-19T06:02:58;24.80;59.10
14705;DHT22;7442;50.840;3.396;2023-06-19T06:05:46;24.80;59.10
14705;DHT22;7442;50.840;3.396;2023-06-19T06:08:35;24.80;59.00
14705;DHT22;7442;50.840;3.396;2023-06-19T06:11:22;24.90;58.90
14705;DHT22;7442;50.840;3.396;2023-06-19T06:14:08;24.90;58.80
14705;DHT22;7442;50.840;3.396;2023-06-19T06:16:54;24.90;58.80
14705;DHT22;7442;50.840;3.396;2023-06-19T06:19:41;24.90;58.70
14705;DHT22;7442;50.840;3.396;2023-06-19T06:22:27;24.90;58.70
14705;DHT22;7442;50.840;3.396;2023-06-19T06:25:14;24.90;58.60
14705;DHT22;7442;50.840;3.396;2023-06-19T06:28:00;24.90;58.60
14705;DHT22;7442;50.840;3.396;2023-06-19T06:30:46;24.90;58.60
14705;DHT22;7442;50.840;3.396;2023-06-19T06:33:33;24.90;58.60
14705;DHT22;7442;50.840;3.396;2023-06-19T06:36:19;24.90;58.60
14705;DHT22;7442;50.840;3.396;2023-06-19T06:39:05;24.90;58.60
14705;DHT22;7442;50.840;3.396;2023-06-19T06:41:52;24.90;58.50
14705;DHT22;7442;50.840;3.396;2023-06-19T06:44:38;24.90;58.50
14705;DHT22;7442;50.840;3.396;2023-06-19T06:47:26;24.90;58.50
14705;DHT22;7442;50.840;3.396;2023-06-19T06:50:13;25.00;58.60
14705;DHT22;7442;50.840;3.396;2023-06-19T06:53:01;25.00;58.40
14705;DHT22;7442;50.840;3.396;2023-06-19T06:55:47;25.00;58.30
14705;DHT22;7442;50.840;3.396;2023-06-19T06:58:33;25.00;58.30
14705;DHT22;7442;50.840;3.396;2023-06-19T07:01:19;25.00;58.20
14705;DHT22;7442;50.840;3.396;2023-06-19T07:04:06;25.00;58.20
14705;DHT22;7442;50.840;3.396;2023-06-19T07:06:52;25.00;58.10
14705;DHT22;7442;50.840;3.396;2023-06-19T07:09:39;25.00;58.20
14705;DHT22;7442;50.840;3.396;2023-06-19T07:12:25;25.00;58.10
14705;DHT22;7442;50.840;3.396;2023-06-19T07:15:12;25.10;58.00
14705;DHT22;7442;50.840;3.396;2023-06-19T07:17:59;25.20;57.90
14705;DHT22;7442;50.840;3.396;2023-06-19T07:20:46;25.20;57.70
14705;DHT22;7442;50.840;3.396;2023-06-19T07:23:32;25.20;58.00
14705;DHT22;7442;50.840;3.396;2023-06-19T07:26:19;25.10;58.00
14705;DHT22;7442;50.840;3.396;2023-06-19T07:29:05;25.10;57.90
14705;DHT22;7442;50.840;3.396;2023-06-19T07:31:51;25.10;58.30
14705;DHT22;7442;50.840;3.396;2023-06-19T07:34:38;25.10;57.90
14705;DHT22;7442;50.840;3.396;2023-06-19T07:37:25;25.10;57.70
14705;DHT22;7442;50.840;3.396;2023-06-19T07:40:12;25.20;57.50
14705;DHT22;7442;50.840;3.396;2023-06-19T07:42:58;25.50;56.80
14705;DHT22;7442;50.840;3.396;2023-06-19T07:45:44;25.90;55.20
14705;DHT22;7442;50.840;3.396;2023-06-19T07:48:30;25.90;55.50
14705;DHT22;7442;50.840;3.396;2023-06-19T07:51:17;25.70;56.00
14705;DHT22;7442;50.840;3.396;2023-06-19T07:54:03;25.50;56.30
14705;DHT22;7442;50.840;3.396;2023-06-19T07:56:50;25.50;56.60
14705;DHT22;7442;50.840;3.396;2023-06-19T07:59:36;25.30;56.70
14705;DHT22;7442;50.840;3.396;2023-06-19T08:02:22;25.20;56.90
14705;DHT22;7442;50.840;3.396;2023-06-19T08:05:09;25.20;56.90
14705;DHT22;7442;50.840;3.396;2023-06-19T08:07:56;25.20;57.00
14705;DHT22;7442;50.840;3.396;2023-06-19T08:10:44;25.00;57.30
14705;DHT22;7442;50.840;3.396;2023-06-19T08:13:30;25.00;57.20
14705;DHT22;7442;50.840;3.396;2023-06-19T08:16:17;25.10;57.30
14705;DHT22;7442;50.840;3.396;2023-06-19T08:19:04;25.10;57.00
14705;DHT22;7442;50.840;3.396;2023-06-19T08:21:50;25.00;57.30
14705;DHT22;7442;50.840;3.396;2023-06-19T08:24:37;25.00;57.60
14705;DHT22;7442;50.840;3.396;2023-06-19T08:27:25;25.10;57.60
14705;DHT22;7442;50.840;3.396;2023-06-19T08:30:11;25.10;56.70
14705;DHT22;7442;50.840;3.396;2023-06-19T08:32:58;25.20;56.70
14705;DHT22;7442;50.840;3.396;2023-06-19T08:35:44;25.20;57.20
14705;DHT22;7442;50.840;3.396;2023-06-19T08:38:32;25.20;57.70
14705;DHT22;7442;50.840;3.396;2023-06-19T08:41:19;25.20;56.90
14705;DHT22;7442;50.840;3.396;2023-06-19T08:44:06;25.20;56.90
14705;DHT22;7442;50.840;3.396;2023-06-19T08:46:52;25.20;56.80
14705;DHT22;7442;50.840;3.396;2023-06-19T08:49:39;25.20;57.40
14705;DHT22;7442;50.840;3.396;2023-06-19T08:52:26;25.10;57.40
14705;DHT22;7442;50.840;3.396;2023-06-19T08:55:12;25.10;57.50
14705;DHT22;7442;50.840;3.396;2023-06-19T08:57:59;25.20;58.00
14705;DHT22;7442;50.840;3.396;2023-06-19T09:00:47;25.20;57.80
14705;DHT22;7442;50.840;3.396;2023-06-19T09:03:33;25.20;57.10
14705;DHT22;7442;50.840;3.396;2023-06-19T09:06:21;25.30;57.00
14705;DHT22;7442;50.840;3.396;2023-06-19T09:09:08;25.30;57.30
14705;DHT22;7442;50.840;3.396;2023-06-19T09:12:01;25.40;57.00
14705;DHT22;7442;50.840;3.396;2023-06-19T09:14:48;25.40;56.30
14705;DHT22;7442;50.840;3.396;2023-06-19T09:17:34;25.50;56.90
14705;DHT22;7442;50.840;3.396;2023-06-19T09:20:27;25.40;56.90
14705;DHT22;7442;50.840;3.396;2023-06-19T09:23:14;25.40;56.80
14705;DHT22;7442;50.840;3.396;2023-06-19T09:26:00;25.40;56.90
14705;DHT22;7442;50.840;3.396;2023-06-19T09:28:47;25.40;56.80
14705;DHT22;7442;50.840;3.396;2023-06-19T09:31:35;25.40;57.00
14705;DHT22;7442;50.840;3.396;2023-06-19T09:34:22;25.40;56.90
14705;DHT22;7442;50.840;3.396;2023-06-19T09:37:09;25.50;56.60
14705;DHT22;7442;50.840;3.396;2023-06-19T09:39:57;25.50;56.40
14705;DHT22;7442;50.840;3.396;2023-06-19T09:42:44;25.50;56.70
14705;DHT22;7442;50.840;3.396;2023-06-19T09:45:32;25.40;56.90
14705;DHT22;7442;50.840;3.396;2023-06-19T09:48:22;25.40;57.50
14705;DHT22;7442;50.840;3.396;2023-06-19T09:51:23;25.50;56.90
14705;DHT22;7442;50.840;3.396;2023-06-19T09:54:10;25.60;56.50
14705;DHT22;7442;50.840;3.396;2023-06-19T09:56:57;25.60;56.40
14705;DHT22;7442;50.840;3.396;2023-06-19T09:59:54;25.70;56.40
14705;DHT22;7442;50.840;3.396;2023-06-19T10:02:43;25.70;56.40
14705;DHT22;7442;50.840;3.396;2023-06-19T10:05:31;25.70;56.30
14705;DHT22;7442;50.840;3.396;2023-06-19T10:08:30;25.70;56.00
14705;DHT22;7442;50.840;3.396;2023-06-19T10:11:16;25.70;56.00
14705;DHT22;7442;50.840;3.396;2023-06-19T10:14:07;25.80;55.90
14705;DHT22;7442;50.840;3.396;2023-06-19T10:16:53;25.80;56.20
14705;DHT22;7442;50.840;3.396;2023-06-19T10:19:51;25.80;55.70
14705;DHT22;7442;50.840;3.396;2023-06-19T10:22:49;25.80;55.50
14705;DHT22;7442;50.840;3.396;2023-06-19T10:25:32;25.80;55.50
14705;DHT22;7442;50.840;3.396;2023-06-19T10:28:27;25.90;55.80
14705;DHT22;7442;50.840;3.396;2023-06-19T10:31:14;25.90;55.70
14705;DHT22;7442;50.840;3.396;2023-06-19T10:34:02;25.90;55.60
14705;DHT22;7442;50.840;3.396;2023-06-19T10:36:49;25.90;55.60
14705;DHT22;7442;50.840;3.396;2023-06-19T10:39:36;26.00;55.50
14705;DHT22;7442;50.840;3.396;2023-06-19T10:42:22;26.00;54.90
14705;DHT22;7442;50.840;3.396;2023-06-19T10:45:10;26.10;54.80
14705;DHT22;7442;50.840;3.396;2023-06-19T10:48:02;26.00;55.20
14705;DHT22;7442;50.840;3.396;2023-06-19T10:50:50;26.00;55.20
14705;DHT22;7442;50.840;3.396;2023-06-19T10:53:36;26.00;55.60
14705;DHT22;7442;50.840;3.396;2023-06-19T10:56:23;26.00;55.30
14705;DHT22;7442;50.840;3.396;2023-06-19T10:59:11;26.10;55.10
14705;DHT22;7442;50.840;3.396;2023-06-19T11:01:58;26.10;55.10
14705;DHT22;7442;50.840;3.396;2023-06-19T11:04:41;26.10;54.90
14705;DHT22;7442;50.840;3.396;2023-06-19T11:07:27;26.10;55.00
14705;DHT22;7442;50.840;3.396;2023-06-19T11:10:19;26.10;54.60
14705;DHT22;7442;50.840;3.396;2023-06-19T11:13:07;26.10;54.50
14705;DHT22;7442;50.840;3.396;2023-06-19T11:15:55;26.10;54.80
14705;DHT22;7442;50.840;3.396;2023-06-19T11:18:43;26.20;54.80
14705;DHT22;7442;50.840;3.396;2023-06-19T11:21:34;26.20;54.60
14705;DHT22;7442;50.840;3.396;2023-06-19T11:24:22;26.20;54.60
14705;DHT22;7442;50.840;3.396;2023-06-19T11:27:21;26.20;54.60
14705;DHT22;7442;50.840;3.396;2023-06-19T11:30:12;26.20;54.80
14705;DHT22;7442;50.840;3.396;2023-06-19T11:32:58;26.20;55.00
14705;DHT22;7442;50.840;3.396;2023-06-19T11:35:49;26.20;55.10
14705;DHT22;7442;50.840;3.396;2023-06-19T11:38:36;26.20;54.90
14705;DHT22;7442;50.840;3.396;2023-06-19T11:41:26;26.10;54.30
14705;DHT22;7442;50.840;3.396;2023-06-19T11:44:14;26.20;54.60
14705;DHT22;7442;50.840;3.396;2023-06-19T11:47:01;26.10;54.30
14705;DHT22;7442;50.840;3.396;2023-06-19T11:49:52;26.10;54.20
14705;DHT22;7442;50.840;3.396;2023-06-19T11:52:41;26.20;54.30
14705;DHT22;7442;50.840;3.396;2023-06-19T11:55:27;26.20;54.70
14705;DHT22;7442;50.840;3.396;2023-06-19T11:58:15;26.20;54.60
14705;DHT22;7442;50.840;3.396;2023-06-19T12:01:01;26.20;54.70
14705;DHT22;7442;50.840;3.396;2023-06-19T12:03:48;26.20;54.60
14705;DHT22;7442;50.840;3.396;2023-06-19T12:06:34;26.20;54.50
14705;DHT22;7442;50.840;3.396;2023-06-19T12:09:20;26.30;54.30
14705;DHT22;7442;50.840;3.396;2023-06-19T12:12:08;26.30;53.60
14705;DHT22;7442;50.840;3.396;2023-06-19T12:14:54;26.30;53.70
14705;DHT22;7442;50.840;3.396;2023-06-19T12:17:40;26.20;54.10
14705;DHT22;7442;50.840;3.396;2023-06-19T12:20:27;26.30;54.00
14705;DHT22;7442;50.840;3.396;2023-06-19T12:23:13;26.30;53.60
14705;DHT22;7442;50.840;3.396;2023-06-19T12:26:00;26.30;53.60
14705;DHT22;7442;50.840;3.396;2023-06-19T12:28:46;26.30;53.50
14705;DHT22;7442;50.840;3.396;2023-06-19T12:31:33;26.30;53.50
14705;DHT22;7442;50.840;3.396;2023-06-19T12:34:19;26.30;53.60
14705;DHT22;7442;50.840;3.396;2023-06-19T12:37:06;26.30;53.60
14705;DHT22;7442;50.840;3.396;2023-06-19T12:39:52;26.30;53.70
14705;DHT22;7442;50.840;3.396;2023-06-19T12:42:38;26.40;53.40
14705;DHT22;7442;50.840;3.396;2023-06-19T12:45:25;26.30;53.90
14705;DHT22;7442;50.840;3.396;2023-06-19T12:48:11;26.40;54.00
14705;DHT22;7442;50.840;3.396;2023-06-19T12:50:58;26.30;53.20
14705;DHT22;7442;50.840;3.396;2023-06-19T12:53:44;26.30;53.50
14705;DHT22;7442;50.840;3.396;2023-06-19T12:56:30;26.40;53.40
14705;DHT22;7442;50.840;3.396;2023-06-19T12:59:17;26.40;53.40
14705;DHT22;7442;50.840;3.396;2023-06-19T13:02:03;26.40;53.20
14705;DHT22;7442;50.840;3.396;2023-06-19T13:04:50;26.40;53.20
14705;DHT22;7442;50.840;3.396;2023-06-19T13:07:36;26.40;52.70
14705;DHT22;7442;50.840;3.396;2023-06-19T13:10:23;26.40;52.80
14705;DHT22;7442;50.840;3.396;2023-06-19T13:13:10;26.40;53.00
14705;DHT22;7442;50.840;3.396;2023-06-19T13:15:56;26.40;52.90
14705;DHT22;7442;50.840;3.396;2023-06-19T13:18:42;26.40;52.60
14705;DHT22;7442;50.840;3.396;2023-06-19T13:21:29;26.40;52.60
14705;DHT22;7442;50.840;3.396;2023-06-19T13:24:16;26.40;52.80
14705;DHT22;7442;50.840;3.396;2023-06-19T13:27:02;26.30;52.60
14705;DHT22;7442;50.840;3.396;2023-06-19T13:29:48;26.40;52.70
14705;DHT22;7442;50.840;3.396;2023-06-19T13:32:40;26.40;52.70
14705;DHT22;7442;50.840;3.396;2023-06-19T13:35:26;26.30;52.60
14705;DHT22;7442;50.840;3.396;2023-06-19T13:38:13;26.30;52.80
14705;DHT22;7442;50.840;3.396;2023-06-19T13:41:01;26.30;52.60
14705;DHT22;7442;50.840;3.396;2023-06-19T13:43:47;26.30;52.90
14705;DHT22;7442;50.840;3.396;2023-06-19T13:46:33;26.20;52.90
14705;DHT22;7442;50.840;3.396;2023-06-19T13:49:19;26.20;53.10
14705;DHT22;7442;50.840;3.396;2023-06-19T13:52:06;26.20;52.90
14705;DHT22;7442;50.840;3.396;2023-06-19T13:54:53;26.30;52.70
14705;DHT22;7442;50.840;3.396;2023-06-19T13:57:40;26.30;52.50
14705;DHT22;7442;50.840;3.396;2023-06-19T14:00:26;26.40;52.30
14705;DHT22;7442;50.840;3.396;2023-06-19T14:03:13;26.30;52.40
14705;DHT22;7442;50.840;3.396;2023-06-19T14:06:00;26.30;52.10
14705;DHT22;7442;50.840;3.396;2023-06-19T14:08:46;26.40;52.10
14705;DHT22;7442;50.840;3.396;2023-06-19T14:11:32;26.50;51.90
14705;DHT22;7442;50.840;3.396;2023-06-19T14:14:19;26.50;51.90
14705;DHT22;7442;50.840;3.396;2023-06-19T14:17:05;26.50;52.00
14705;DHT22;7442;50.840;3.396;2023-06-19T14:19:52;26.40;52.10
14705;DHT22;7442;50.840;3.396;2023-06-19T14:22:40;26.40;52.10
14705;DHT22;7442;50.840;3.396;2023-06-19T14:25:26;26.40;52.10
14705;DHT22;7442;50.840;3.396;2023-06-19T14:28:12;26.50;52.10
14705;DHT22;7442;50.840;3.396;2023-06-19T14:31:00;26.50;52.00
14705;DHT22;7442;50.840;3.396;2023-06-19T14:33:46;26.50;51.90
14705;DHT22;7442;50.840;3.396;2023-06-19T14:36:33;26.50;51.70
14705;DHT22;7442;50.840;3.396;2023-06-19T14:39:19;26.60;51.40
14705;DHT22;7442;50.840;3.396;2023-06-19T14:42:05;26.60;50.90
14705;DHT22;7442;50.840;3.396;2023-06-19T14:44:52;26.60;50.50
14705;DHT22;7442;50.840;3.396;2023-06-19T14:47:39;26.60;50.20
14705;DHT22;7442;50.840;3.396;2023-06-19T14:50:25;26.60;50.60
14705;DHT22;7442;50.840;3.396;2023-06-19T14:53:11;26.60;50.20
14705;DHT22;7442;50.840;3.396;2023-06-19T14:55:58;26.50;50.10
14705;DHT22;7442;50.840;3.396;2023-06-19T14:58:44;26.50;50.40
14705;DHT22;7442;50.840;3.396;2023-06-19T15:01:30;26.50;50.70
14705;DHT22;7442;50.840;3.396;2023-06-19T15:04:16;26.50;51.00
14705;DHT22;7442;50.840;3.396;2023-06-19T15:07:08;26.60;51.10
14705;DHT22;7442;50.840;3.396;2023-06-19T15:09:51;26.70;50.60
14705;DHT22;7442;50.840;3.396;2023-06-19T15:12:37;26.70;50.50
14705;DHT22;7442;50.840;3.396;2023-06-19T15:15:23;26.70;50.60
14705;DHT22;7442;50.840;3.396;2023-06-19T15:18:10;26.70;50.80
14705;DHT22;7442;50.840;3.396;2023-06-19T15:20:56;26.60;50.80
14705;DHT22;7442;50.840;3.396;2023-06-19T15:23:43;26.60;50.90
14705;DHT22;7442;50.840;3.396;2023-06-19T15:26:30;26.70;50.90
14705;DHT22;7442;50.840;3.396;2023-06-19T15:29:18;26.80;50.90
14705;DHT22;7442;50.840;3.396;2023-06-19T15:32:05;26.70;51.00
14705;DHT22;7442;50.840;3.396;2023-06-19T15:34:51;26.70;51.30
14705;DHT22;7442;50.840;3.396;2023-06-19T15:37:37;26.60;51.40
14705;DHT22;7442;50.840;3.396;2023-06-19T15:40:24;26.70;51.20
14705;DHT22;7442;50.840;3.396;2023-06-19T15:43:12;26.70;51.30
14705;DHT22;7442;50.840;3.396;2023-06-19T15:45:58;26.60;51.30
14705;DHT22;7442;50.840;3.396;2023-06-19T15:48:45;26.60;51.50
14705;DHT22;7442;50.840;3.396;2023-06-19T15:51:32;26.60;51.00
14705;DHT22;7442;50.840;3.396;2023-06-19T15:54:18;26.60;50.90
14705;DHT22;7442;50.840;3.396;2023-06-19T15:57:06;26.60;51.80
14705;DHT22;7442;50.840;3.396;2023-06-19T15:59:53;26.60;51.60
14705;DHT22;7442;50.840;3.396;2023-06-19T16:02:41;26.60;51.60
14705;DHT22;7442;50.840;3.396;2023-06-19T16:05:31;26.60;51.80
14705;DHT22;7442;50.840;3.396;2023-06-19T16:08:19;26.50;51.60
14705;DHT22;7442;50.840;3.396;2023-06-19T16:11:05;26.50;51.70
14705;DHT22;7442;50.840;3.396;2023-06-19T16:13:51;26.50;51.70
14705;DHT22;7442;50.840;3.396;2023-06-19T16:16:38;26.60;51.60
14705;DHT22;7442;50.840;3.396;2023-06-19T16:19:24;26.60;51.60
14705;DHT22;7442;50.840;3.396;2023-06-19T16:22:11;26.50;51.60
14705;DHT22;7442;50.840;3.396;2023-06-19T16:24:57;26.50;51.60
14705;DHT22;7442;50.840;3.396;2023-06-19T16:27:44;26.50;51.50
14705;DHT22;7442;50.840;3.396;2023-06-19T16:30:30;26.50;51.50
14705;DHT22;7442;50.840;3.396;2023-06-19T16:33:17;26.50;51.50
14705;DHT22;7442;50.840;3.396;2023-06-19T16:36:03;26.60;51.30
14705;DHT22;7442;50.840;3.396;2023-06-19T16:38:50;26.60;51.40
14705;DHT22;7442;50.840;3.396;2023-06-19T16:41:36;26.60;51.50
14705;DHT22;7442;50.840;3.396;2023-06-19T16:44:24;26.60;51.70
14705;DHT22;7442;50.840;3.396;2023-06-19T16:47:10;26.60;52.00
14705;DHT22;7442;50.840;3.396;2023-06-19T16:49:56;26.50;51.70
14705;DHT22;7442;50.840;3.396;2023-06-19T16:52:43;26.50;51.80
14705;DHT22;7442;50.840;3.396;2023-06-19T16:55:29;26.50;52.00
14705;DHT22;7442;50.840;3.396;2023-06-19T16:58:15;26.50;52.00
14705;DHT22;7442;50.840;3.396;2023-06-19T17:01:01;26.50;52.90
14705;DHT22;7442;50.840;3.396;2023-06-19T17:03:48;26.50;52.50
14705;DHT22;7442;50.840;3.396;2023-06-19T17:06:35;26.50;52.20
14705;DHT22;7442;50.840;3.396;2023-06-19T17:09:21;26.50;52.20